Latest Weather Observations for Cape Borda

IDS60801

Issued at 4:35 am CDT Wednesday 22 October 2014 (issued every 30 minutes, with the page automatically refreshed every 10 minutes)

About weather observations | Map of weather stations | Latest weather observations for SA | Other Formats
Station Details ID: 022823 Name: CAPE BORDA Lat: -35.75 Lon: 136.60 Height: 158.0 m
Data from the previous 72 hours. | See also: Recent months at Cape Borda
Date/Time
CDT
Temp
°C
App
Temp
°C
Dew
Point
Rel
Hum
%
Delta-T
°C
Wind Press
QNH
hPa
Press
MSL
hPa
Rain
since 9 am
mm
Dir
 
Spd
km/h
Gust
km/h
Spd
kts
Gust
kts
22/04:30am 14.1 8.3 12.6 91 0.8 S 35 48 19 26 1016.2 - 0.0
22/04:00am 14.6 8.3 12.2 85 1.3 S 37 48 20 26 1016.1 - 0.0
22/03:30am 15.6 9.0 11.5 76 2.2 S 37 50 20 27 1016.3 - 0.0
22/03:14am 16.5 9.9 10.1 66 3.4 S 35 54 19 29 1016.4 - 0.0
22/03:00am 17.5 11.0 9.1 58 4.4 S 33 44 18 24 1016.5 1016.5 0.0
22/02:30am 18.0 11.1 9.0 55 4.7 S 35 46 19 25 1016.5 - 0.0
22/02:00am 17.8 11.1 9.7 59 4.3 S 35 46 19 25 1017.0 - 0.0
22/01:30am 17.6 11.0 9.9 60 4.1 S 35 46 19 25 1017.1 - 0.0
22/01:00am 18.0 11.0 9.9 59 4.3 S 37 52 20 28 1016.6 - 0.0
22/12:30am 18.7 13.1 10.1 57 4.6 S 30 44 16 24 1017.1 - 0.0
22/12:03am 22.5 16.0 6.5 35 8.2 SSW 30 48 16 26 1017.2 - 0.0
22/12:00am 22.4 15.6 4.9 32 8.7 W 30 44 16 24 1017.1 1017.1 0.0
 
Date/Time
CDT
Temp
°C
App
Temp
°C
Dew
Point
Rel
Hum
%
Delta-T
°C
Wind Press
QNH
hPa
Press
MSL
hPa
Rain
since 9 am
mm
Dir
 
Spd
km/h
Gust
km/h
Spd
kts
Gust
kts
21/11:30pm 22.7 18.0 3.0 27 9.5 ESE 17 19 9 10 1016.7 - 0.0
21/11:00pm 22.8 17.2 3.5 28 9.4 ESE 22 30 12 16 1016.8 - 0.0
21/10:30pm 24.5 17.7 0.8 21 11.1 ESE 26 33 14 18 1017.7 - 0.0
21/10:00pm 21.1 14.8 5.8 37 7.7 SSE 28 35 15 19 1017.8 - 0.0
21/09:30pm 20.0 14.3 8.3 47 6.1 S 28 37 15 20 1018.0 - 0.0
21/09:00pm 20.0 13.9 9.8 52 5.5 SW 32 46 17 25 1018.2 1018.2 0.0
21/08:30pm 22.0 16.6 8.2 41 7.3 S 26 44 14 24 1017.0 - 0.0
21/08:25pm 21.6 16.1 9.1 44 6.7 S 28 44 15 24 1016.8 - 0.0
21/08:00pm 25.4 21.2 1.6 21 11.4 NE 13 15 7 8 1016.5 - 0.0
21/07:30pm 25.1 20.3 2.4 23 11.0 ENE 17 19 9 10 1016.0 - 0.0
21/07:00pm 24.9 20.7 3.7 25 10.5 ESE 15 22 8 12 1015.6 - 0.0
21/06:30pm 24.9 20.0 4.0 26 10.4 ENE 19 30 10 16 1016.5 - 0.0
21/06:00pm 26.1 21.3 2.6 21 11.5 ENE 17 24 9 13 1016.4 1016.4 0.0
21/05:30pm 27.5 22.5 1.1 18 12.7 ENE 17 22 9 12 1016.1 - 0.0
21/05:00pm 28.7 24.4 0.7 16 13.5 N 13 17 7 9 1016.4 - 0.0
21/04:30pm 28.4 23.0 1.2 17 13.2 NE 19 24 10 13 1016.4 - 0.0
21/04:00pm 28.1 22.8 2.1 18 12.8 NE 19 26 10 14 1016.6 - 0.0
21/03:30pm 28.5 22.8 2.9 19 12.8 ENE 22 30 12 16 1016.6 - 0.0
21/03:00pm 28.1 22.1 3.2 20 12.5 NE 24 33 13 18 1016.8 1016.8 0.0
21/02:30pm 29.4 23.3 3.0 18 13.3 NE 24 32 13 17 1017.3 - 0.0
21/02:00pm 29.0 22.5 2.9 18 13.1 NE 26 33 14 18 1017.4 - 0.0
21/01:30pm 27.8 21.6 4.3 22 12.0 NE 26 37 14 20 1017.9 - 0.0
21/01:00pm 26.8 20.6 4.3 23 11.4 NE 26 33 14 18 1018.1 - 0.0
21/12:30pm 27.3 21.5 4.3 23 11.7 NE 24 33 13 18 1018.6 - 0.0
21/12:00pm 27.7 21.8 4.0 22 12.0 NE 24 35 13 19 1018.7 1018.7 0.0
21/11:30am 27.1 20.5 4.2 23 11.6 NE 28 35 15 19 1018.8 - 0.0
21/11:00am 26.4 19.9 4.5 24 11.1 ENE 28 39 15 21 1019.0 - 0.0
21/10:30am 23.3 17.2 4.6 29 9.3 ENE 26 37 14 20 1019.0 - 0.0
21/10:00am 23.0 16.4 4.4 29 9.2 ENE 28 39 15 21 1019.0 - 0.0
21/09:30am 22.0 15.2 4.9 32 8.5 ENE 30 37 16 20 1019.0 - 0.0
21/09:00am 22.6 15.4 5.0 32 8.8 ENE 32 43 17 23 1018.9 1018.9 0.0
21/08:30am 22.1 15.3 5.0 32 8.5 ENE 30 41 16 22 1019.0 - 0.0
21/08:00am 21.9 14.5 4.1 31 8.7 ENE 32 46 17 25 1019.0 - 0.0
21/07:30am 21.7 14.3 4.1 31 8.6 ENE 32 43 17 23 1019.0 - 0.0
21/07:18am 21.8 14.4 4.2 31 8.6 ENE 32 50 17 27 1018.8 - 0.0
21/07:00am 22.2 14.5 3.4 29 9.1 ENE 33 46 18 25 1018.3 - 0.0
21/06:30am 22.3 14.2 3.2 28 9.2 ENE 35 48 19 26 1017.7 - 0.0
21/06:05am 22.5 14.7 2.9 27 9.4 ENE 33 52 18 28 1017.6 - 0.0
21/06:00am 22.5 14.7 2.9 27 9.4 ENE 33 48 18 26 1017.6 1017.6 0.0
21/05:30am 22.9 15.0 2.3 26 9.8 ENE 33 52 18 28 1017.3 - 0.0
21/05:27am 22.8 15.0 2.8 27 9.6 ENE 33 52 18 28 1017.3 - 0.0
21/05:00am 23.2 14.8 1.8 24 10.1 ENE 35 48 19 26 1017.2 - 0.0
21/04:30am 22.9 14.6 2.3 26 9.8 ENE 35 46 19 25 1017.1 - 0.0
21/04:15am 23.1 14.7 1.6 24 10.1 ENE 35 54 19 29 1017.2 - 0.0
21/04:00am 22.9 14.6 2.3 26 9.8 ENE 35 46 19 25 1017.3 - 0.0
21/03:30am 22.7 14.9 2.6 26 9.6 ENE 33 48 18 26 1017.6 - 0.0
21/03:00am 22.7 15.1 2.6 26 9.6 E 32 46 17 25 1017.7 1017.7 0.0
21/02:34am 23.0 15.1 2.1 25 9.9 ENE 33 52 18 28 1018.1 - 0.0
21/02:30am 23.2 14.9 2.2 25 10.0 ENE 35 52 19 28 1018.2 - 0.0
21/02:00am 23.4 15.4 1.9 24 10.2 E 33 48 18 26 1018.4 - 0.0
21/01:49am 23.7 15.7 1.4 23 10.5 E 33 54 18 29 1018.4 - 0.0
21/01:30am 23.2 15.3 2.5 25 9.9 E 33 46 18 25 1018.5 - 0.0
21/01:00am 23.5 15.1 1.7 24 10.3 E 35 46 19 25 1018.9 - 0.0
21/12:50am 23.5 15.6 2.0 24 10.2 E 33 52 18 28 1019.1 - 0.0
21/12:30am 23.5 15.8 2.4 25 10.1 E 32 46 17 25 1019.4 - 0.0
21/12:03am 23.6 15.9 2.2 24 10.2 E 32 54 17 29 1019.7 - 0.0
21/12:00am 23.6 15.9 2.2 24 10.2 E 32 46 17 25 1019.7 1019.7 0.0
 
Date/Time
CDT
Temp
°C
App
Temp
°C
Dew
Point
Rel
Hum
%
Delta-T
°C
Wind Press
QNH
hPa
Press
MSL
hPa
Rain
since 9 am
mm
Dir
 
Spd
km/h
Gust
km/h
Spd
kts
Gust
kts
20/11:50pm 22.4 15.7 3.4 28 9.2 E 28 48 15 26 1019.8 - 0.0
20/11:30pm 21.6 15.1 4.5 32 8.4 E 28 39 15 21 1020.0 - 0.0
20/11:00pm 21.7 15.1 4.3 32 8.5 E 28 39 15 21 1020.2 - 0.0
20/10:30pm 19.9 13.5 5.3 38 7.2 E 28 37 15 20 1020.4 - 0.0
20/10:00pm 20.1 13.7 5.0 37 7.4 E 28 35 15 19 1020.6 - 0.0
20/09:30pm 19.6 13.4 6.2 41 6.7 E 28 35 15 19 1020.5 - 0.0
20/09:00pm 18.5 12.9 7.3 48 5.7 ESE 26 35 14 19 1020.3 1020.3 0.0
20/08:30pm 18.1 12.6 7.7 50 5.3 ESE 26 33 14 18 1020.0 - 0.0
20/08:00pm 18.4 13.3 9.1 54 4.9 ESE 26 33 14 18 1020.1 - 0.0
20/07:30pm 19.6 15.5 10.1 54 5.1 ESE 22 28 12 15 1020.0 - 0.0
20/07:00pm 22.6 19.5 10.4 46 6.7 E 17 20 9 11 1020.0 - 0.0
20/06:30pm 25.1 22.1 9.4 37 8.6 E 15 20 8 11 1020.0 - 0.0
20/06:00pm 25.9 23.3 9.4 35 9.1 E 13 19 7 10 1020.0 1020.0 0.0
20/05:30pm 25.0 21.8 10.0 38 8.3 ENE 17 22 9 12 1020.1 - 0.0
20/05:00pm 24.9 21.9 10.6 40 8.0 ENE 17 24 9 13 1020.1 - 0.0
20/04:30pm 25.3 21.5 9.7 37 8.6 ENE 20 26 11 14 1020.5 - 0.0
20/04:00pm 25.1 21.2 9.4 37 8.6 ENE 20 28 11 15 1020.8 - 0.0
20/03:30pm 26.0 22.3 10.0 36 8.9 ENE 20 26 11 14 1021.0 - 0.0
20/03:00pm 24.9 21.0 9.6 38 8.4 ENE 20 28 11 15 1021.2 1021.1 0.0
20/02:30pm 25.5 21.6 9.3 36 8.9 ENE 20 26 11 14 1021.7 - 0.0
20/02:00pm 25.1 21.7 9.2 36 8.7 ENE 17 24 9 13 1022.1 - 0.0
20/01:30pm 24.3 20.9 9.0 37 8.3 ENE 17 24 9 13 1022.5 - 0.0
20/01:00pm 24.4 20.7 8.1 35 8.7 ENE 17 22 9 12 1022.9 - 0.0
20/12:30pm 24.1 19.9 8.4 36 8.4 ENE 20 26 11 14 1023.1 - 0.0
20/12:00pm 23.6 19.6 9.2 40 7.8 E 20 30 11 16 1023.4 1023.4 0.0
20/11:30am 21.6 17.6 9.0 44 6.7 E 20 32 11 17 1023.9 - 0.0
20/11:00am 19.7 16.1 10.7 56 4.9 ESE 20 30 11 16 1024.2 - 0.0
20/10:30am 18.5 14.9 10.7 60 4.2 ESE 20 28 11 15 1024.3 - 0.0
20/10:00am 16.8 13.7 10.4 66 3.4 ESE 17 28 9 15 1024.4 - 0.0
20/09:30am 16.3 11.4 10.0 66 3.3 ESE 26 41 14 22 1023.7 - 0.0
20/09:00am 14.7 8.0 9.7 72 2.6 ESE 35 46 19 25 1023.6 1023.6 0.0
20/08:30am 14.0 7.8 9.5 74 2.3 ESE 32 48 17 26 1023.8 - 0.0
20/08:00am 12.8 6.1 9.5 80 1.7 ESE 35 46 19 25 1023.5 - 0.0
20/07:30am 11.9 4.4 9.3 84 1.3 ESE 39 50 21 27 1023.4 - 0.0
20/07:00am 11.6 4.4 9.2 85 1.2 ESE 37 54 20 29 1023.3 - 0.0
20/06:30am 11.5 3.9 8.9 84 1.3 ESE 39 54 21 29 1022.9 - 0.0
20/06:00am 11.7 3.7 8.9 83 1.4 ESE 41 54 22 29 1022.5 1022.5 0.0
20/05:31am 11.9 4.2 8.7 81 1.6 ESE 39 57 21 31 1022.2 - 0.0
20/05:30am 11.9 3.9 8.9 82 1.5 ESE 41 57 22 31 1022.2 - 0.0
20/05:09am 12.0 4.0 9.0 82 1.5 ESE 41 59 22 32 1022.0 - 0.0
20/05:00am 12.1 3.7 8.9 81 1.6 ESE 43 59 23 32 1021.9 - 0.0
20/04:30am 12.1 3.8 9.3 83 1.4 ESE 43 57 23 31 1022.0 - 0.0
20/04:02am 12.3 3.9 9.1 81 1.6 ESE 43 65 23 35 1021.9 - 0.0
20/04:00am 12.2 3.8 9.0 81 1.6 ESE 43 59 23 32 1022.0 - 0.0
20/03:30am 12.2 3.7 9.2 82 1.5 ESE 44 63 24 34 1022.0 - 0.0
20/03:03am 12.1 3.8 9.3 83 1.4 ESE 43 61 23 33 1022.1 - 0.0
20/03:00am 12.1 3.2 9.3 83 1.4 ESE 46 61 25 33 1022.2 1022.2 0.0
20/02:30am 12.1 3.7 9.1 82 1.5 ESE 43 61 23 33 1022.1 - 0.0
20/02:00am 12.2 3.2 9.0 81 1.6 ESE 46 70 25 38 1022.4 - 0.0
20/01:30am 12.3 3.4 9.1 81 1.6 SE 46 65 25 35 1022.4 - 0.0
20/01:00am 12.4 3.4 9.0 80 1.7 ESE 46 65 25 35 1022.5 - 0.0
20/12:30am 12.2 3.8 9.0 81 1.6 SE 43 65 23 35 1022.7 - 0.0
20/12:05am 12.4 3.4 8.8 79 1.8 SE 46 65 25 35 1022.7 - 0.0
20/12:00am 12.4 3.4 9.0 80 1.7 SE 46 63 25 34 1022.7 1022.7 0.0
 
Date/Time
CDT
Temp
°C
App
Temp
°C
Dew
Point
Rel
Hum
%
Delta-T
°C
Wind Press
QNH
hPa
Press
MSL
hPa
Rain
since 9 am
mm
Dir
 
Spd
km/h
Gust
km/h
Spd
kts
Gust
kts
19/11:37pm 12.6 4.2 9.0 79 1.8 SE 43 65 23 35 1022.8 - 0.0
19/11:30pm 12.5 4.0 9.1 80 1.7 SE 44 59 24 32 1022.8 - 0.0
19/11:09pm 12.7 4.3 8.9 78 1.9 SE 43 63 23 34 1023.1 - 0.0
19/11:00pm 12.7 4.3 9.1 79 1.8 SE 43 57 23 31 1023.4 - 0.0
19/10:31pm 12.9 5.3 8.9 76 2.0 SE 39 57 21 31 1023.4 - 0.0
19/10:30pm 12.8 5.1 8.8 76 2.0 SE 39 56 21 30 1023.5 - 0.0
19/10:00pm 13.0 5.3 8.8 75 2.1 SE 39 57 21 31 1023.4 - 0.0
19/09:30pm 13.1 4.6 9.2 77 2.0 SE 44 65 24 35 1023.1 - 0.0
19/09:16pm 13.1 5.2 9.2 77 2.0 SE 41 59 22 32 1023.1 - 0.0
19/09:00pm 13.3 5.0 9.4 77 2.0 SE 43 59 23 32 1022.9 1022.9 0.0
19/08:34pm 13.3 4.9 9.8 79 1.8 SE 44 63 24 34 1022.9 - 0.0
19/08:30pm 13.3 4.9 9.8 79 1.8 SE 44 61 24 33 1022.7 - 0.0
19/08:01pm 13.4 5.3 9.9 79 1.8 SE 43 61 23 33 1022.6 - 0.0
19/08:00pm 13.4 5.3 10.1 80 1.7 SE 43 59 23 32 1022.7 - 0.0
19/07:30pm 13.8 5.7 10.2 79 1.9 SE 43 61 23 33 1022.4 - 0.0
19/07:08pm 14.4 6.3 10.2 76 2.2 SE 43 61 23 33 1021.8 - 0.0
19/07:00pm 14.8 7.6 10.4 75 2.3 SE 39 56 21 30 1021.8 - 0.0
19/06:30pm 15.7 7.6 10.0 69 3.0 SE 43 61 23 33 1021.9 - 0.0
19/06:00pm 16.6 9.1 9.5 63 3.7 SE 39 59 21 32 1021.8 1021.8 0.0
19/05:49pm 17.4 10.8 10.1 62 3.9 SE 35 54 19 29 1021.8 - 0.0
19/05:30pm 17.3 10.9 10.6 64 3.6 SE 35 52 19 28 1021.7 - 0.0
19/05:02pm 16.5 8.6 10.9 69 3.0 SE 43 61 23 33 1021.4 - 0.0
19/05:00pm 16.8 8.9 11.3 70 3.0 SE 44 61 24 33 1021.4 - 0.0
19/04:34pm 16.4 9.1 11.4 72 2.7 SE 41 59 22 32 1021.5 - 0.0
19/04:30pm 16.6 8.9 11.4 71 2.8 SSE 43 57 23 31 1021.4 - 0.0
19/04:13pm 18.4 11.2 10.6 60 4.2 SSE 39 57 21 31 1021.3 - 0.0
19/04:00pm 17.9 9.8 10.2 60 4.1 SE 43 57 23 31 1021.3 - 0.0
19/03:30pm 18.0 9.9 10.6 62 4.0 SSE 44 63 24 34 1021.5 - 0.0
19/03:00pm 18.8 10.9 10.9 60 4.3 SSE 43 61 23 33 1021.4 1021.3 0.0
19/02:58pm 18.8 11.4 11.1 61 4.2 SSE 41 61 22 33 1021.3 - 0.0
19/02:30pm 19.8 12.9 11.7 59 4.5 SSE 39 50 21 27 1021.4 - 0.0
19/02:00pm 21.8 17.3 12.5 55 5.3 SSE 28 43 15 23 1021.3 - 0.0
19/01:30pm 23.8 20.8 11.8 47 6.8 SE 19 28 10 15 1021.1 - 0.0
19/01:00pm 22.7 19.1 11.9 50 6.1 SSE 22 32 12 17 1021.0 - 0.0
19/12:30pm 21.1 17.2 12.2 56 5.0 SE 24 30 13 16 1020.6 - 0.0
19/12:00pm 18.5 13.7 12.8 69 3.2 SE 30 39 16 21 1021.0 1020.9 0.0
19/11:30am 18.5 13.4 13.0 70 3.1 SSE 32 41 17 22 1021.0 - 0.0
19/11:00am 19.1 14.3 13.9 72 3.0 SSE 32 43 17 23 1020.9 - 0.0
19/10:49am 20.7 16.7 14.0 65 3.9 S 28 39 15 21 1021.0 - 0.0
19/10:30am 21.7 18.7 12.1 54 5.4 S 19 20 10 11 1020.9 - 0.0
19/10:00am 20.9 18.6 9.1 46 6.3 SW 11 15 6 8 1020.8 - 0.0
19/09:30am 22.5 19.1 5.7 33 8.5 NE 13 19 7 10 1019.9 - 0.0
19/09:00am 22.1 19.1 5.9 35 8.2 NE 11 15 6 8 1020.0 1020.0 0.0
19/08:30am 20.8 17.0 5.6 37 7.6 NE 15 20 8 11 1019.3 - 0.0
19/08:00am 20.5 16.3 5.7 38 7.4 NE 17 22 9 12 1018.9 - 0.0
19/07:30am 18.4 13.8 5.6 43 6.3 ENE 19 22 10 12 1018.7 - 0.0
19/07:00am 17.1 12.4 5.3 45 5.7 E 19 22 10 12 1018.2 - 0.0
19/06:30am 16.8 12.0 4.6 44 5.8 E 19 24 10 13 1017.7 - 0.0
19/06:00am 17.4 14.4 4.1 41 6.3 NE 9 11 5 6 1017.6 1017.6 0.0
19/05:30am 18.3 15.1 3.1 36 7.1 NNE 9 13 5 7 1016.9 - 0.0
19/05:00am 18.5 13.1 2.2 33 7.5 E 20 26 11 14 1016.5 - 0.0

Other Formats:

Comma delimited format used in spreadsheet applications
http://www.bom.gov.au/fwo/IDS60801/IDS60801.95805.axf

JavaScript Object Notation format (JSON) in row-major order
http://www.bom.gov.au/fwo/IDS60801/IDS60801.95805.json